Saint Joseph, IL

10:58 AM CDT on May 25, 2017 (GMT -0500)
Crestlake | | Change Station

Elev 678 ft 40.11 °N, 88.03 °W | Updated 66 days ago

Overcast
Overcast
44.3 °F
Feels Like 42 °F
N
4.7
Wind Variable Wind from NNE
Gusts 4.7 mph

Today
High -- | Low -- °F
--% Chance of Precip.
Yesterday
High -- | Low -- °F
Precip. -- in
Pressure 29.65 in
Visibility 9.0 miles
Clouds Mostly Cloudy 1400 ft
Overcast 1800 ft
Windchill 42 °F
Dew Point -1.5 °F
Humidity 15%
Rainfall in
Snow Depth Not available.
5:28 AM 8:10 PM
Waning Crescent, 0% visible
METAR KCMI 251553Z 33016KT 9SM BKN014 OVC018 16/12 A2965 RMK AO2 SLP038 T01610122
Pressure 29.65 in
Visibility 9.0 miles
Clouds Mostly Cloudy 1400 ft
Overcast 1800 ft
Windchill 42 °F
Dew Point -1.5 °F
Humidity 15%
Rainfall in
Snow Depth Not available.
5:28 AM 8:10 PM
Waning Crescent, 0% visible
METAR KCMI 251553Z 33016KT 9SM BKN014 OVC018 16/12 A2965 RMK AO2 SLP038 T01610122

Get Severe Weather Alerts

Thanks for signing up!

Be on the lookout for a verification email in your inbox.

You'll start receiving the daily forecast at 6 AM.

×

10-Day Weather Forecast

Almanac

Astronomy

May. 25, 2017 Rise Set
Actual Time
Civil Twilight
Nautical Twilight
Astronomical Twilight
Moon
Length of Visible Light
Length of Day
Tomorrow will be .
, % of the Moon is Illuminated

Today's Extremes

State Highs State Lows

Community

WunderPhotos

Category 6

Welcome to Category 6. This is the collective home for Weather Underground's featured writeups by Dr. Jeff Masters (right), Bob Henson (left), Chris Burt, and other regular contributors.

Nearby

Air Quality

  Air Quality AQ Index Pollutant
Not available.

Snow Depth

Station Depth Elevation

Earthquake Activity

City Distance Mag. Time & Date
Minimum magnitude displayed is 2.5.

Coastal Water Temperatures

Place Temperature

Stations

Nearby Weather Stations

Station Location Temp. Windchill Dew Point Humidity Wind Precip. Elev Updated Type
                   

Watches & Warnings

There are currently no watches in effect.